Weather at Bella Vista Farms Landing Strip [CLOSED]

Public forecast

Using degrees Fahrenheit for public forecast. Weather courtesy of forecast.io.

Closest aviation weather report (METAR) to Bella Vista Farms Landing Strip

Closest report is Phoenix-Mesa-Gateway Airport, 12.5 nm (23.1 km) NW. Retrieved 2021/06/21 08:35 UTC (11 minutes ago):

KIWA 210835Z AUTO 15007KT 10SM 31/13 A2981 RMK AO2 T03090135

Closest aviation forecast (TAF) to Bella Vista Farms Landing Strip

Closest forecast is Phoenix-Mesa-Gateway Airport, 12.5 nm (23.1 km) NW. Retrieved 2021/06/21 06:24 UTC (2 hours ago):

TAF KIWA 210520Z 2106/2206 25010KT P6SM SKC FM210800 12006KT P6SM SKC FM211700 27012KT P6SM SKC FM220300 27007KT P6SM SKC AMD LTD TO CLD VIS AND WIND TIL 211200